sensor_id;sensor_type;location;lat;lon;timestamp;P1;durP1;ratioP1;P2;durP2;ratioP2
5475;SDS011;2760;50.000;9.194;2023-05-10T00:00:55;3.03;;;2.60;;
5475;SDS011;2760;50.000;9.194;2023-05-10T00:03:22;3.00;;;2.70;;
5475;SDS011;2760;50.000;9.194;2023-05-10T00:05:48;2.50;;;2.30;;
5475;SDS011;2760;50.000;9.194;2023-05-10T00:08:16;3.13;;;2.83;;
5475;SDS011;2760;50.000;9.194;2023-05-10T00:10:43;3.27;;;2.97;;
5475;SDS011;2760;50.000;9.194;2023-05-10T00:13:10;4.23;;;3.00;;
5475;SDS011;2760;50.000;9.194;2023-05-10T00:15:37;2.10;;;1.90;;
5475;SDS011;2760;50.000;9.194;2023-05-10T00:18:05;2.20;;;2.00;;
5475;SDS011;2760;50.000;9.194;2023-05-10T00:20:32;3.30;;;1.50;;
5475;SDS011;2760;50.000;9.194;2023-05-10T00:22:59;2.23;;;1.30;;
5475;SDS011;2760;50.000;9.194;2023-05-10T00:25:26;3.07;;;1.40;;
5475;SDS011;2760;50.000;9.194;2023-05-10T00:27:53;1.63;;;1.53;;
5475;SDS011;2760;50.000;9.194;2023-05-10T00:30:22;2.07;;;1.30;;
5475;SDS011;2760;50.000;9.194;2023-05-10T00:32:49;1.60;;;1.50;;
5475;SDS011;2760;50.000;9.194;2023-05-10T00:35:18;1.33;;;1.17;;
5475;SDS011;2760;50.000;9.194;2023-05-10T00:37:46;1.27;;;1.00;;
5475;SDS011;2760;50.000;9.194;2023-05-10T00:40:15;1.20;;;1.10;;
5475;SDS011;2760;50.000;9.194;2023-05-10T00:42:46;1.73;;;1.13;;
5475;SDS011;2760;50.000;9.194;2023-05-10T00:45:13;1.50;;;1.03;;
5475;SDS011;2760;50.000;9.194;2023-05-10T00:47:41;1.20;;;1.10;;
5475;SDS011;2760;50.000;9.194;2023-05-10T00:50:08;2.50;;;1.57;;
5475;SDS011;2760;50.000;9.194;2023-05-10T00:52:37;1.30;;;1.20;;
5475;SDS011;2760;50.000;9.194;2023-05-10T00:55:05;1.37;;;1.27;;
5475;SDS011;2760;50.000;9.194;2023-05-10T00:57:33;1.27;;;1.20;;
5475;SDS011;2760;50.000;9.194;2023-05-10T01:00:00;2.23;;;1.10;;
5475;SDS011;2760;50.000;9.194;2023-05-10T01:02:29;1.73;;;1.10;;
5475;SDS011;2760;50.000;9.194;2023-05-10T01:04:56;3.10;;;1.20;;
5475;SDS011;2760;50.000;9.194;2023-05-10T01:07:23;5.00;;;1.17;;
5475;SDS011;2760;50.000;9.194;2023-05-10T01:09:52;0.90;;;0.90;;
5475;SDS011;2760;50.000;9.194;2023-05-10T01:12:19;1.37;;;1.20;;
5475;SDS011;2760;50.000;9.194;2023-05-10T01:14:47;5.97;;;1.23;;
5475;SDS011;2760;50.000;9.194;2023-05-10T01:17:14;1.33;;;1.20;;
5475;SDS011;2760;50.000;9.194;2023-05-10T01:19:42;9.10;;;1.30;;
5475;SDS011;2760;50.000;9.194;2023-05-10T01:22:15;4.37;;;1.33;;
5475;SDS011;2760;50.000;9.194;2023-05-10T01:25:22;2.13;;;1.20;;
5475;SDS011;2760;50.000;9.194;2023-05-10T01:31:15;1.00;;;0.90;;
5475;SDS011;2760;50.000;9.194;2023-05-10T01:33:52;1.20;;;1.20;;
5475;SDS011;2760;50.000;9.194;2023-05-10T01:36:23;1.33;;;1.07;;
5475;SDS011;2760;50.000;9.194;2023-05-10T01:38:57;1.47;;;1.37;;
5475;SDS011;2760;50.000;9.194;2023-05-10T01:41:31;2.80;;;0.97;;
5475;SDS011;2760;50.000;9.194;2023-05-10T01:44:09;0.80;;;0.80;;
5475;SDS011;2760;50.000;9.194;2023-05-10T01:46:44;0.90;;;0.90;;
5475;SDS011;2760;50.000;9.194;2023-05-10T01:49:20;1.00;;;1.00;;
5475;SDS011;2760;50.000;9.194;2023-05-10T01:51:50;1.20;;;0.97;;
5475;SDS011;2760;50.000;9.194;2023-05-10T01:54:20;1.63;;;1.20;;
5475;SDS011;2760;50.000;9.194;2023-05-10T01:56:50;1.00;;;1.00;;
5475;SDS011;2760;50.000;9.194;2023-05-10T01:59:22;3.27;;;1.23;;
5475;SDS011;2760;50.000;9.194;2023-05-10T02:01:54;4.40;;;1.13;;
5475;SDS011;2760;50.000;9.194;2023-05-10T02:04:25;1.37;;;1.00;;
5475;SDS011;2760;50.000;9.194;2023-05-10T02:06:54;1.20;;;1.10;;
5475;SDS011;2760;50.000;9.194;2023-05-10T02:09:23;1.23;;;1.13;;
5475;SDS011;2760;50.000;9.194;2023-05-10T02:11:54;1.13;;;1.03;;
5475;SDS011;2760;50.000;9.194;2023-05-10T02:14:22;1.07;;;1.00;;
5475;SDS011;2760;50.000;9.194;2023-05-10T02:16:50;2.83;;;1.23;;
5475;SDS011;2760;50.000;9.194;2023-05-10T02:19:20;1.97;;;0.90;;
5475;SDS011;2760;50.000;9.194;2023-05-10T02:21:51;1.63;;;1.17;;
5475;SDS011;2760;50.000;9.194;2023-05-10T02:24:18;2.90;;;1.13;;
5475;SDS011;2760;50.000;9.194;2023-05-10T02:26:47;2.20;;;1.00;;
5475;SDS011;2760;50.000;9.194;2023-05-10T02:29:15;1.20;;;1.17;;
5475;SDS011;2760;50.000;9.194;2023-05-10T02:31:46;1.27;;;1.20;;
5475;SDS011;2760;50.000;9.194;2023-05-10T02:34:14;2.50;;;1.10;;
5475;SDS011;2760;50.000;9.194;2023-05-10T02:36:41;0.93;;;0.93;;
5475;SDS011;2760;50.000;9.194;2023-05-10T02:39:10;1.33;;;1.00;;
5475;SDS011;2760;50.000;9.194;2023-05-10T02:41:38;3.37;;;1.33;;
5475;SDS011;2760;50.000;9.194;2023-05-10T02:44:07;1.20;;;1.10;;
5475;SDS011;2760;50.000;9.194;2023-05-10T02:46:35;2.17;;;1.10;;
5475;SDS011;2760;50.000;9.194;2023-05-10T02:49:03;2.60;;;1.47;;
5475;SDS011;2760;50.000;9.194;2023-05-10T02:51:31;1.80;;;1.33;;
5475;SDS011;2760;50.000;9.194;2023-05-10T02:54:01;1.40;;;1.30;;
5475;SDS011;2760;50.000;9.194;2023-05-10T02:56:40;1.30;;;1.20;;
5475;SDS011;2760;50.000;9.194;2023-05-10T02:59:13;2.50;;;1.53;;
5475;SDS011;2760;50.000;9.194;2023-05-10T03:01:40;10.73;;;1.70;;
5475;SDS011;2760;50.000;9.194;2023-05-10T03:04:07;1.83;;;1.73;;
5475;SDS011;2760;50.000;9.194;2023-05-10T03:06:35;5.37;;;1.73;;
5475;SDS011;2760;50.000;9.194;2023-05-10T03:09:03;5.60;;;2.20;;
5475;SDS011;2760;50.000;9.194;2023-05-10T03:11:37;3.90;;;1.80;;
5475;SDS011;2760;50.000;9.194;2023-05-10T03:14:16;2.40;;;1.90;;
5475;SDS011;2760;50.000;9.194;2023-05-10T03:16:56;2.43;;;1.87;;
5475;SDS011;2760;50.000;9.194;2023-05-10T03:19:27;2.90;;;2.50;;
5475;SDS011;2760;50.000;9.194;2023-05-10T03:21:59;2.20;;;1.70;;
5475;SDS011;2760;50.000;9.194;2023-05-10T03:24:35;2.97;;;2.00;;
5475;SDS011;2760;50.000;9.194;2023-05-10T03:27:07;7.00;;;2.40;;
5475;SDS011;2760;50.000;9.194;2023-05-10T03:29:37;2.40;;;2.20;;
5475;SDS011;2760;50.000;9.194;2023-05-10T03:32:06;2.00;;;1.90;;
5475;SDS011;2760;50.000;9.194;2023-05-10T03:34:33;2.60;;;2.40;;
5475;SDS011;2760;50.000;9.194;2023-05-10T03:37:01;4.10;;;2.07;;
5475;SDS011;2760;50.000;9.194;2023-05-10T03:39:30;3.43;;;1.80;;
5475;SDS011;2760;50.000;9.194;2023-05-10T03:41:59;4.20;;;1.87;;
5475;SDS011;2760;50.000;9.194;2023-05-10T03:44:28;3.30;;;1.83;;
5475;SDS011;2760;50.000;9.194;2023-05-10T03:46:55;4.13;;;2.10;;
5475;SDS011;2760;50.000;9.194;2023-05-10T03:49:23;4.33;;;1.70;;
5475;SDS011;2760;50.000;9.194;2023-05-10T03:51:50;2.27;;;2.10;;
5475;SDS011;2760;50.000;9.194;2023-05-10T03:54:17;1.90;;;1.80;;
5475;SDS011;2760;50.000;9.194;2023-05-10T03:56:45;2.23;;;2.13;;
5475;SDS011;2760;50.000;9.194;2023-05-10T03:59:14;4.47;;;2.17;;
5475;SDS011;2760;50.000;9.194;2023-05-10T04:01:42;2.13;;;2.03;;
5475;SDS011;2760;50.000;9.194;2023-05-10T04:04:09;10.03;;;2.37;;
5475;SDS011;2760;50.000;9.194;2023-05-10T04:06:37;1.90;;;1.80;;
5475;SDS011;2760;50.000;9.194;2023-05-10T04:09:04;2.60;;;1.97;;
5475;SDS011;2760;50.000;9.194;2023-05-10T04:11:31;1.80;;;1.70;;
5475;SDS011;2760;50.000;9.194;2023-05-10T04:13:58;1.77;;;1.67;;
5475;SDS011;2760;50.000;9.194;2023-05-10T04:16:25;10.00;;;2.13;;
5475;SDS011;2760;50.000;9.194;2023-05-10T04:18:54;3.70;;;1.80;;
5475;SDS011;2760;50.000;9.194;2023-05-10T04:21:21;4.90;;;1.80;;
5475;SDS011;2760;50.000;9.194;2023-05-10T04:23:48;4.37;;;2.20;;
5475;SDS011;2760;50.000;9.194;2023-05-10T04:26:15;2.93;;;2.63;;
5475;SDS011;2760;50.000;9.194;2023-05-10T04:28:42;3.10;;;2.07;;
5475;SDS011;2760;50.000;9.194;2023-05-10T04:31:09;2.00;;;1.90;;
5475;SDS011;2760;50.000;9.194;2023-05-10T04:33:36;3.97;;;1.67;;
5475;SDS011;2760;50.000;9.194;2023-05-10T04:36:08;2.20;;;2.07;;
5475;SDS011;2760;50.000;9.194;2023-05-10T04:38:35;5.13;;;1.90;;
5475;SDS011;2760;50.000;9.194;2023-05-10T04:41:05;3.20;;;2.17;;
5475;SDS011;2760;50.000;9.194;2023-05-10T04:43:33;4.87;;;2.37;;
5475;SDS011;2760;50.000;9.194;2023-05-10T04:46:01;2.70;;;1.97;;
5475;SDS011;2760;50.000;9.194;2023-05-10T04:48:28;8.00;;;2.60;;
5475;SDS011;2760;50.000;9.194;2023-05-10T04:50:55;2.10;;;1.93;;
5475;SDS011;2760;50.000;9.194;2023-05-10T04:53:24;2.53;;;2.33;;
5475;SDS011;2760;50.000;9.194;2023-05-10T04:55:51;2.70;;;2.33;;
5475;SDS011;2760;50.000;9.194;2023-05-10T04:58:18;2.90;;;2.37;;
5475;SDS011;2760;50.000;9.194;2023-05-10T05:00:45;2.43;;;2.23;;
5475;SDS011;2760;50.000;9.194;2023-05-10T05:03:12;3.03;;;2.47;;
5475;SDS011;2760;50.000;9.194;2023-05-10T05:05:39;3.50;;;2.60;;
5475;SDS011;2760;50.000;9.194;2023-05-10T05:08:06;6.50;;;1.93;;
5475;SDS011;2760;50.000;9.194;2023-05-10T05:10:35;2.30;;;2.20;;
5475;SDS011;2760;50.000;9.194;2023-05-10T05:13:02;3.23;;;2.40;;
5475;SDS011;2760;50.000;9.194;2023-05-10T05:15:29;4.20;;;2.40;;
5475;SDS011;2760;50.000;9.194;2023-05-10T05:17:56;2.80;;;2.23;;
5475;SDS011;2760;50.000;9.194;2023-05-10T05:20:23;3.93;;;2.67;;
5475;SDS011;2760;50.000;9.194;2023-05-10T05:22:50;5.83;;;5.03;;
5475;SDS011;2760;50.000;9.194;2023-05-10T05:25:17;2.07;;;1.97;;
5475;SDS011;2760;50.000;9.194;2023-05-10T05:27:45;2.40;;;1.97;;
5475;SDS011;2760;50.000;9.194;2023-05-10T05:30:15;6.50;;;2.60;;
5475;SDS011;2760;50.000;9.194;2023-05-10T05:32:42;2.37;;;2.17;;
5475;SDS011;2760;50.000;9.194;2023-05-10T05:35:09;1.77;;;1.67;;
5475;SDS011;2760;50.000;9.194;2023-05-10T05:37:36;2.80;;;2.30;;
5475;SDS011;2760;50.000;9.194;2023-05-10T05:40:03;3.73;;;2.20;;
5475;SDS011;2760;50.000;9.194;2023-05-10T05:42:32;6.27;;;2.40;;
5475;SDS011;2760;50.000;9.194;2023-05-10T05:45:00;4.47;;;2.47;;
5475;SDS011;2760;50.000;9.194;2023-05-10T05:47:27;2.10;;;1.90;;
5475;SDS011;2760;50.000;9.194;2023-05-10T05:49:56;3.23;;;2.33;;
5475;SDS011;2760;50.000;9.194;2023-05-10T05:52:23;3.73;;;2.40;;
5475;SDS011;2760;50.000;9.194;2023-05-10T05:54:50;2.10;;;2.00;;
5475;SDS011;2760;50.000;9.194;2023-05-10T05:57:17;4.00;;;2.80;;
5475;SDS011;2760;50.000;9.194;2023-05-10T05:59:44;2.60;;;2.40;;
5475;SDS011;2760;50.000;9.194;2023-05-10T06:02:12;9.33;;;3.10;;
5475;SDS011;2760;50.000;9.194;2023-05-10T06:04:39;9.20;;;3.27;;
5475;SDS011;2760;50.000;9.194;2023-05-10T06:07:06;10.73;;;4.20;;
5475;SDS011;2760;50.000;9.194;2023-05-10T06:09:33;6.87;;;3.30;;
5475;SDS011;2760;50.000;9.194;2023-05-10T06:12:00;3.13;;;2.93;;
5475;SDS011;2760;50.000;9.194;2023-05-10T06:14:28;5.43;;;3.10;;
5475;SDS011;2760;50.000;9.194;2023-05-10T06:16:55;5.63;;;3.17;;
5475;SDS011;2760;50.000;9.194;2023-05-10T06:19:23;3.27;;;3.07;;
5475;SDS011;2760;50.000;9.194;2023-05-10T06:21:51;6.80;;;3.80;;
5475;SDS011;2760;50.000;9.194;2023-05-10T06:24:18;4.83;;;3.87;;
5475;SDS011;2760;50.000;9.194;2023-05-10T06:26:46;7.03;;;3.37;;
5475;SDS011;2760;50.000;9.194;2023-05-10T06:29:15;7.23;;;3.27;;
5475;SDS011;2760;50.000;9.194;2023-05-10T06:31:42;5.57;;;3.33;;
5475;SDS011;2760;50.000;9.194;2023-05-10T06:34:08;5.70;;;3.47;;
5475;SDS011;2760;50.000;9.194;2023-05-10T06:36:38;6.60;;;3.20;;
5475;SDS011;2760;50.000;9.194;2023-05-10T06:39:05;5.07;;;3.03;;
5475;SDS011;2760;50.000;9.194;2023-05-10T06:41:32;4.70;;;3.30;;
5475;SDS011;2760;50.000;9.194;2023-05-10T06:43:59;7.97;;;3.73;;
5475;SDS011;2760;50.000;9.194;2023-05-10T06:46:26;6.90;;;3.10;;
5475;SDS011;2760;50.000;9.194;2023-05-10T06:48:53;8.17;;;3.50;;
5475;SDS011;2760;50.000;9.194;2023-05-10T06:51:20;9.40;;;3.63;;
5475;SDS011;2760;50.000;9.194;2023-05-10T06:53:48;6.67;;;3.50;;
5475;SDS011;2760;50.000;9.194;2023-05-10T06:56:15;6.87;;;4.13;;
5475;SDS011;2760;50.000;9.194;2023-05-10T06:58:42;3.43;;;3.10;;
5475;SDS011;2760;50.000;9.194;2023-05-10T07:01:09;5.30;;;3.43;;
5475;SDS011;2760;50.000;9.194;2023-05-10T07:03:36;4.60;;;3.60;;
5475;SDS011;2760;50.000;9.194;2023-05-10T07:06:03;8.20;;;3.67;;
5475;SDS011;2760;50.000;9.194;2023-05-10T07:08:32;8.10;;;3.47;;
5475;SDS011;2760;50.000;9.194;2023-05-10T07:11:01;6.17;;;3.10;;
5475;SDS011;2760;50.000;9.194;2023-05-10T07:13:29;3.60;;;3.20;;
5475;SDS011;2760;50.000;9.194;2023-05-10T07:15:58;9.30;;;3.10;;
5475;SDS011;2760;50.000;9.194;2023-05-10T07:18:27;3.83;;;3.00;;
5475;SDS011;2760;50.000;9.194;2023-05-10T07:20:54;5.97;;;3.90;;
5475;SDS011;2760;50.000;9.194;2023-05-10T07:23:21;6.27;;;4.30;;
5475;SDS011;2760;50.000;9.194;2023-05-10T07:25:48;5.77;;;3.63;;
5475;SDS011;2760;50.000;9.194;2023-05-10T07:28:18;7.53;;;3.63;;
5475;SDS011;2760;50.000;9.194;2023-05-10T07:30:45;6.30;;;2.90;;
5475;SDS011;2760;50.000;9.194;2023-05-10T07:33:13;8.63;;;3.77;;
5475;SDS011;2760;50.000;9.194;2023-05-10T07:35:41;8.77;;;3.60;;
5475;SDS011;2760;50.000;9.194;2023-05-10T07:38:08;12.90;;;3.30;;
5475;SDS011;2760;50.000;9.194;2023-05-10T07:40:36;6.93;;;3.70;;
5475;SDS011;2760;50.000;9.194;2023-05-10T07:43:03;12.53;;;5.23;;
5475;SDS011;2760;50.000;9.194;2023-05-10T07:45:32;3.87;;;3.50;;
5475;SDS011;2760;50.000;9.194;2023-05-10T07:47:59;7.03;;;3.20;;
5475;SDS011;2760;50.000;9.194;2023-05-10T07:50:27;7.20;;;3.23;;
5475;SDS011;2760;50.000;9.194;2023-05-10T07:52:54;3.87;;;2.93;;
5475;SDS011;2760;50.000;9.194;2023-05-10T07:55:21;5.10;;;3.40;;
5475;SDS011;2760;50.000;9.194;2023-05-10T07:57:48;6.20;;;2.93;;
5475;SDS011;2760;50.000;9.194;2023-05-10T08:00:17;5.80;;;2.20;;
5475;SDS011;2760;50.000;9.194;2023-05-10T08:02:47;3.53;;;2.57;;
5475;SDS011;2760;50.000;9.194;2023-05-10T08:05:15;6.20;;;3.00;;
5475;SDS011;2760;50.000;9.194;2023-05-10T08:07:43;5.77;;;3.10;;
5475;SDS011;2760;50.000;9.194;2023-05-10T08:10:11;13.43;;;3.37;;
5475;SDS011;2760;50.000;9.194;2023-05-10T08:12:38;4.67;;;2.80;;
5475;SDS011;2760;50.000;9.194;2023-05-10T08:15:05;8.63;;;3.30;;
5475;SDS011;2760;50.000;9.194;2023-05-10T08:17:33;5.23;;;3.20;;
5475;SDS011;2760;50.000;9.194;2023-05-10T08:20:02;7.00;;;3.07;;
5475;SDS011;2760;50.000;9.194;2023-05-10T08:22:29;6.17;;;3.50;;
5475;SDS011;2760;50.000;9.194;2023-05-10T08:24:56;6.67;;;3.23;;
5475;SDS011;2760;50.000;9.194;2023-05-10T08:27:23;9.30;;;6.90;;
5475;SDS011;2760;50.000;9.194;2023-05-10T08:29:51;5.53;;;4.10;;
5475;SDS011;2760;50.000;9.194;2023-05-10T08:32:18;5.40;;;3.47;;
5475;SDS011;2760;50.000;9.194;2023-05-10T08:34:49;6.33;;;3.50;;
5475;SDS011;2760;50.000;9.194;2023-05-10T08:37:17;7.73;;;3.77;;
5475;SDS011;2760;50.000;9.194;2023-05-10T08:39:46;9.00;;;3.83;;
5475;SDS011;2760;50.000;9.194;2023-05-10T08:42:14;5.27;;;3.53;;
5475;SDS011;2760;50.000;9.194;2023-05-10T08:44:45;6.27;;;4.20;;
5475;SDS011;2760;50.000;9.194;2023-05-10T08:47:15;10.30;;;4.20;;
5475;SDS011;2760;50.000;9.194;2023-05-10T08:49:44;7.93;;;4.53;;
5475;SDS011;2760;50.000;9.194;2023-05-10T08:52:17;5.33;;;3.63;;
5475;SDS011;2760;50.000;9.194;2023-05-10T08:54:45;5.73;;;3.80;;
5475;SDS011;2760;50.000;9.194;2023-05-10T08:57:14;4.00;;;3.40;;
5475;SDS011;2760;50.000;9.194;2023-05-10T08:59:41;8.10;;;3.70;;
5475;SDS011;2760;50.000;9.194;2023-05-10T09:02:08;13.80;;;4.17;;
5475;SDS011;2760;50.000;9.194;2023-05-10T09:04:39;5.13;;;3.67;;
5475;SDS011;2760;50.000;9.194;2023-05-10T09:07:10;5.23;;;3.20;;
5475;SDS011;2760;50.000;9.194;2023-05-10T09:09:39;4.13;;;3.70;;
5475;SDS011;2760;50.000;9.194;2023-05-10T09:12:06;4.10;;;3.47;;
5475;SDS011;2760;50.000;9.194;2023-05-10T09:14:36;6.13;;;3.23;;
5475;SDS011;2760;50.000;9.194;2023-05-10T09:17:04;3.40;;;3.07;;
5475;SDS011;2760;50.000;9.194;2023-05-10T09:19:32;4.33;;;3.10;;
5475;SDS011;2760;50.000;9.194;2023-05-10T09:21:58;4.70;;;3.47;;
5475;SDS011;2760;50.000;9.194;2023-05-10T09:24:28;6.30;;;3.33;;
5475;SDS011;2760;50.000;9.194;2023-05-10T09:27:01;3.43;;;3.13;;
5475;SDS011;2760;50.000;9.194;2023-05-10T09:29:38;6.03;;;3.30;;
5475;SDS011;2760;50.000;9.194;2023-05-10T09:32:05;3.90;;;3.40;;
5475;SDS011;2760;50.000;9.194;2023-05-10T09:34:32;4.97;;;3.30;;
5475;SDS011;2760;50.000;9.194;2023-05-10T09:37:01;3.50;;;3.20;;
5475;SDS011;2760;50.000;9.194;2023-05-10T09:39:30;6.40;;;3.30;;
5475;SDS011;2760;50.000;9.194;2023-05-10T09:41:58;3.10;;;2.70;;
5475;SDS011;2760;50.000;9.194;2023-05-10T09:44:27;5.03;;;2.60;;
5475;SDS011;2760;50.000;9.194;2023-05-10T09:46:55;7.73;;;3.60;;
5475;SDS011;2760;50.000;9.194;2023-05-10T09:49:22;12.60;;;3.70;;
5475;SDS011;2760;50.000;9.194;2023-05-10T09:52:02;5.23;;;3.60;;
5475;SDS011;2760;50.000;9.194;2023-05-10T09:54:32;11.70;;;3.30;;
5475;SDS011;2760;50.000;9.194;2023-05-10T09:56:59;2.47;;;2.27;;
5475;SDS011;2760;50.000;9.194;2023-05-10T09:59:30;20.13;;;3.30;;
5475;SDS011;2760;50.000;9.194;2023-05-10T10:02:00;5.03;;;2.40;;
5475;SDS011;2760;50.000;9.194;2023-05-10T10:04:28;6.67;;;2.20;;
5475;SDS011;2760;50.000;9.194;2023-05-10T10:06:59;4.00;;;2.00;;
5475;SDS011;2760;50.000;9.194;2023-05-10T10:09:27;5.20;;;2.43;;
5475;SDS011;2760;50.000;9.194;2023-05-10T10:11:54;1.50;;;1.40;;
5475;SDS011;2760;50.000;9.194;2023-05-10T10:14:22;2.13;;;1.70;;
5475;SDS011;2760;50.000;9.194;2023-05-10T10:16:51;4.03;;;2.17;;
5475;SDS011;2760;50.000;9.194;2023-05-10T10:19:20;3.53;;;2.53;;
5475;SDS011;2760;50.000;9.194;2023-05-10T10:21:48;2.80;;;2.10;;
5475;SDS011;2760;50.000;9.194;2023-05-10T10:24:17;7.67;;;2.63;;
5475;SDS011;2760;50.000;9.194;2023-05-10T10:26:45;14.80;;;5.20;;
5475;SDS011;2760;50.000;9.194;2023-05-10T10:29:17;5.03;;;3.10;;
5475;SDS011;2760;50.000;9.194;2023-05-10T10:31:54;5.90;;;2.67;;
5475;SDS011;2760;50.000;9.194;2023-05-10T10:34:30;5.90;;;2.40;;
5475;SDS011;2760;50.000;9.194;2023-05-10T10:36:58;3.77;;;2.90;;
5475;SDS011;2760;50.000;9.194;2023-05-10T10:39:31;5.30;;;2.57;;
5475;SDS011;2760;50.000;9.194;2023-05-10T10:42:01;7.73;;;3.50;;
5475;SDS011;2760;50.000;9.194;2023-05-10T10:44:38;9.23;;;3.67;;
5475;SDS011;2760;50.000;9.194;2023-05-10T10:47:10;4.93;;;2.77;;
5475;SDS011;2760;50.000;9.194;2023-05-10T10:50:02;4.97;;;2.63;;
5475;SDS011;2760;50.000;9.194;2023-05-10T10:52:31;3.10;;;2.60;;
5475;SDS011;2760;50.000;9.194;2023-05-10T10:55:00;2.50;;;2.30;;
5475;SDS011;2760;50.000;9.194;2023-05-10T10:57:42;9.27;;;2.53;;
5475;SDS011;2760;50.000;9.194;2023-05-10T11:00:20;4.90;;;2.57;;
5475;SDS011;2760;50.000;9.194;2023-05-10T11:02:57;1.60;;;1.50;;
5475;SDS011;2760;50.000;9.194;2023-05-10T11:05:33;1.57;;;1.40;;
5475;SDS011;2760;50.000;9.194;2023-05-10T11:08:14;3.23;;;1.37;;
5475;SDS011;2760;50.000;9.194;2023-05-10T11:10:54;1.50;;;1.40;;
5475;SDS011;2760;50.000;9.194;2023-05-10T11:13:39;5.60;;;1.30;;
5475;SDS011;2760;50.000;9.194;2023-05-10T11:16:11;2.50;;;1.67;;
5475;SDS011;2760;50.000;9.194;2023-05-10T11:18:58;2.37;;;1.83;;
5475;SDS011;2760;50.000;9.194;2023-05-10T11:21:27;3.00;;;1.40;;
5475;SDS011;2760;50.000;9.194;2023-05-10T11:23:55;2.90;;;1.80;;
5475;SDS011;2760;50.000;9.194;2023-05-10T11:26:24;4.40;;;1.60;;
5475;SDS011;2760;50.000;9.194;2023-05-10T11:28:52;3.00;;;1.77;;
5475;SDS011;2760;50.000;9.194;2023-05-10T11:31:24;1.20;;;1.10;;
5475;SDS011;2760;50.000;9.194;2023-05-10T11:33:54;2.77;;;1.67;;
5475;SDS011;2760;50.000;9.194;2023-05-10T11:36:24;1.50;;;1.40;;
5475;SDS011;2760;50.000;9.194;2023-05-10T11:38:54;2.13;;;1.70;;
5475;SDS011;2760;50.000;9.194;2023-05-10T11:41:24;4.30;;;3.90;;
5475;SDS011;2760;50.000;9.194;2023-05-10T11:43:53;3.20;;;1.67;;
5475;SDS011;2760;50.000;9.194;2023-05-10T11:46:22;4.50;;;2.10;;
5475;SDS011;2760;50.000;9.194;2023-05-10T11:48:51;2.10;;;1.63;;
5475;SDS011;2760;50.000;9.194;2023-05-10T11:51:21;3.17;;;2.40;;
5475;SDS011;2760;50.000;9.194;2023-05-10T11:53:53;6.93;;;2.30;;
5475;SDS011;2760;50.000;9.194;2023-05-10T11:56:22;4.23;;;2.37;;
5475;SDS011;2760;50.000;9.194;2023-05-10T11:58:54;2.50;;;1.90;;
5475;SDS011;2760;50.000;9.194;2023-05-10T12:01:23;4.60;;;2.20;;
5475;SDS011;2760;50.000;9.194;2023-05-10T12:03:51;3.23;;;2.20;;
5475;SDS011;2760;50.000;9.194;2023-05-10T12:06:20;3.23;;;1.87;;
5475;SDS011;2760;50.000;9.194;2023-05-10T12:08:53;4.07;;;2.00;;
5475;SDS011;2760;50.000;9.194;2023-05-10T12:11:20;3.30;;;2.80;;
5475;SDS011;2760;50.000;9.194;2023-05-10T12:13:53;2.97;;;2.20;;
5475;SDS011;2760;50.000;9.194;2023-05-10T12:16:26;2.40;;;2.00;;
5475;SDS011;2760;50.000;9.194;2023-05-10T12:18:56;3.13;;;1.43;;
5475;SDS011;2760;50.000;9.194;2023-05-10T12:21:24;2.13;;;1.57;;
5475;SDS011;2760;50.000;9.194;2023-05-10T12:23:56;1.57;;;1.47;;
5475;SDS011;2760;50.000;9.194;2023-05-10T12:26:27;1.50;;;1.40;;
5475;SDS011;2760;50.000;9.194;2023-05-10T12:28:55;2.47;;;1.37;;
5475;SDS011;2760;50.000;9.194;2023-05-10T12:31:48;1.60;;;1.50;;
5475;SDS011;2760;50.000;9.194;2023-05-10T12:34:22;2.43;;;1.97;;
5475;SDS011;2760;50.000;9.194;2023-05-10T12:36:51;1.70;;;1.60;;
5475;SDS011;2760;50.000;9.194;2023-05-10T12:39:22;2.87;;;2.50;;
5475;SDS011;2760;50.000;9.194;2023-05-10T12:41:52;1.53;;;1.43;;
5475;SDS011;2760;50.000;9.194;2023-05-10T12:44:21;2.40;;;1.70;;
5475;SDS011;2760;50.000;9.194;2023-05-10T12:46:49;1.97;;;1.60;;
5475;SDS011;2760;50.000;9.194;2023-05-10T12:49:17;7.03;;;1.83;;
5475;SDS011;2760;50.000;9.194;2023-05-10T12:51:44;5.60;;;1.40;;
5475;SDS011;2760;50.000;9.194;2023-05-10T12:54:12;1.63;;;1.37;;
5475;SDS011;2760;50.000;9.194;2023-05-10T12:56:42;3.23;;;1.50;;
5475;SDS011;2760;50.000;9.194;2023-05-10T12:59:10;5.20;;;1.20;;
5475;SDS011;2760;50.000;9.194;2023-05-10T13:01:40;3.70;;;1.33;;
5475;SDS011;2760;50.000;9.194;2023-05-10T13:04:08;2.87;;;1.60;;
5475;SDS011;2760;50.000;9.194;2023-05-10T13:06:38;1.40;;;1.30;;
5475;SDS011;2760;50.000;9.194;2023-05-10T13:09:06;1.53;;;1.43;;
5475;SDS011;2760;50.000;9.194;2023-05-10T13:11:33;3.20;;;1.70;;
5475;SDS011;2760;50.000;9.194;2023-05-10T13:14:01;3.33;;;1.47;;
5475;SDS011;2760;50.000;9.194;2023-05-10T13:16:29;6.83;;;1.80;;
5475;SDS011;2760;50.000;9.194;2023-05-10T13:19:04;2.93;;;1.10;;
5475;SDS011;2760;50.000;9.194;2023-05-10T13:21:32;3.90;;;1.63;;
5475;SDS011;2760;50.000;9.194;2023-05-10T13:23:59;2.27;;;1.30;;
5475;SDS011;2760;50.000;9.194;2023-05-10T13:26:28;13.83;;;2.60;;
5475;SDS011;2760;50.000;9.194;2023-05-10T13:28:56;4.20;;;1.30;;
5475;SDS011;2760;50.000;9.194;2023-05-10T13:34:37;3.53;;;1.83;;
5475;SDS011;2760;50.000;9.194;2023-05-10T13:37:04;6.13;;;1.90;;
5475;SDS011;2760;50.000;9.194;2023-05-10T13:39:36;3.03;;;1.30;;
5475;SDS011;2760;50.000;9.194;2023-05-10T13:42:03;3.60;;;1.50;;
5475;SDS011;2760;50.000;9.194;2023-05-10T13:44:36;1.87;;;1.03;;
5475;SDS011;2760;50.000;9.194;2023-05-10T13:47:05;5.00;;;3.70;;
5475;SDS011;2760;50.000;9.194;2023-05-10T13:49:37;6.30;;;2.03;;
5475;SDS011;2760;50.000;9.194;2023-05-10T13:52:05;3.73;;;1.87;;
5475;SDS011;2760;50.000;9.194;2023-05-10T13:54:32;3.80;;;1.40;;
5475;SDS011;2760;50.000;9.194;2023-05-10T13:57:02;3.40;;;1.33;;
5475;SDS011;2760;50.000;9.194;2023-05-10T13:59:32;4.20;;;1.10;;
5475;SDS011;2760;50.000;9.194;2023-05-10T14:02:00;1.30;;;1.20;;
5475;SDS011;2760;50.000;9.194;2023-05-10T14:04:28;3.70;;;1.57;;
5475;SDS011;2760;50.000;9.194;2023-05-10T14:06:58;1.73;;;1.10;;
5475;SDS011;2760;50.000;9.194;2023-05-10T14:09:25;1.70;;;1.33;;
5475;SDS011;2760;50.000;9.194;2023-05-10T14:11:52;3.73;;;1.13;;
5475;SDS011;2760;50.000;9.194;2023-05-10T14:14:19;3.27;;;1.37;;
5475;SDS011;2760;50.000;9.194;2023-05-10T14:16:46;2.90;;;2.70;;
5475;SDS011;2760;50.000;9.194;2023-05-10T14:19:13;3.57;;;1.50;;
5475;SDS011;2760;50.000;9.194;2023-05-10T14:21:40;2.40;;;1.50;;
5475;SDS011;2760;50.000;9.194;2023-05-10T14:24:09;7.90;;;1.40;;
5475;SDS011;2760;50.000;9.194;2023-05-10T14:26:36;5.30;;;1.50;;
5475;SDS011;2760;50.000;9.194;2023-05-10T14:29:03;3.57;;;1.57;;
5475;SDS011;2760;50.000;9.194;2023-05-10T14:31:30;4.97;;;1.40;;
5475;SDS011;2760;50.000;9.194;2023-05-10T14:33:57;3.47;;;1.37;;
5475;SDS011;2760;50.000;9.194;2023-05-10T14:36:24;1.20;;;1.10;;
5475;SDS011;2760;50.000;9.194;2023-05-10T14:38:54;1.40;;;1.07;;
5475;SDS011;2760;50.000;9.194;2023-05-10T14:41:22;4.90;;;1.30;;
5475;SDS011;2760;50.000;9.194;2023-05-10T14:43:49;2.60;;;1.10;;
5475;SDS011;2760;50.000;9.194;2023-05-10T14:46:16;4.37;;;1.73;;
5475;SDS011;2760;50.000;9.194;2023-05-10T14:48:44;1.73;;;1.33;;
5475;SDS011;2760;50.000;9.194;2023-05-10T14:51:11;2.60;;;1.03;;
5475;SDS011;2760;50.000;9.194;2023-05-10T14:53:38;2.20;;;1.30;;
5475;SDS011;2760;50.000;9.194;2023-05-10T14:56:05;3.53;;;1.30;;
5475;SDS011;2760;50.000;9.194;2023-05-10T14:58:34;2.20;;;1.20;;
5475;SDS011;2760;50.000;9.194;2023-05-10T15:01:01;5.50;;;1.60;;
5475;SDS011;2760;50.000;9.194;2023-05-10T15:03:29;5.40;;;1.37;;
5475;SDS011;2760;50.000;9.194;2023-05-10T15:05:55;5.33;;;1.73;;
5475;SDS011;2760;50.000;9.194;2023-05-10T15:08:23;3.10;;;2.13;;
5475;SDS011;2760;50.000;9.194;2023-05-10T15:10:50;2.77;;;1.60;;
5475;SDS011;2760;50.000;9.194;2023-05-10T15:13:17;2.07;;;1.70;;
5475;SDS011;2760;50.000;9.194;2023-05-10T15:15:46;1.93;;;1.77;;
5475;SDS011;2760;50.000;9.194;2023-05-10T15:18:13;4.00;;;1.80;;
5475;SDS011;2760;50.000;9.194;2023-05-10T15:20:40;2.57;;;1.60;;
5475;SDS011;2760;50.000;9.194;2023-05-10T15:23:07;2.80;;;1.40;;
5475;SDS011;2760;50.000;9.194;2023-05-10T15:25:34;4.97;;;1.77;;
5475;SDS011;2760;50.000;9.194;2023-05-10T15:28:03;10.27;;;1.50;;
5475;SDS011;2760;50.000;9.194;2023-05-10T15:30:30;4.43;;;1.80;;
5475;SDS011;2760;50.000;9.194;2023-05-10T15:33:07;4.50;;;1.40;;